sensor_id;sensor_type;location;lat;lon;timestamp;P1;durP1;ratioP1;P2;durP2;ratioP2
29330;SDS011;16331;52.528;13.342;2022-09-13T00:00:50;3.90;;;2.58;;
29330;SDS011;16331;52.528;13.342;2022-09-13T00:03:17;3.47;;;2.55;;
29330;SDS011;16331;52.528;13.342;2022-09-13T00:05:44;3.80;;;2.45;;
29330;SDS011;16331;52.528;13.342;2022-09-13T00:08:11;3.38;;;2.47;;
29330;SDS011;16331;52.528;13.342;2022-09-13T00:10:38;3.20;;;2.58;;
29330;SDS011;16331;52.528;13.342;2022-09-13T00:13:10;4.60;;;2.78;;
29330;SDS011;16331;52.528;13.342;2022-09-13T00:15:58;5.88;;;2.70;;
29330;SDS011;16331;52.528;13.342;2022-09-13T00:18:27;4.25;;;2.72;;
29330;SDS011;16331;52.528;13.342;2022-09-13T00:21:02;3.58;;;2.45;;
29330;SDS011;16331;52.528;13.342;2022-09-13T00:23:30;2.67;;;2.00;;
29330;SDS011;16331;52.528;13.342;2022-09-13T00:26:03;4.25;;;2.40;;
29330;SDS011;16331;52.528;13.342;2022-09-13T00:28:30;5.13;;;2.50;;
29330;SDS011;16331;52.528;13.342;2022-09-13T00:31:00;2.17;;;1.88;;
29330;SDS011;16331;52.528;13.342;2022-09-13T00:33:29;4.82;;;2.40;;
29330;SDS011;16331;52.528;13.342;2022-09-13T00:35:55;4.97;;;2.72;;
29330;SDS011;16331;52.528;13.342;2022-09-13T00:38:22;3.47;;;2.35;;
29330;SDS011;16331;52.528;13.342;2022-09-13T00:40:48;4.22;;;2.72;;
29330;SDS011;16331;52.528;13.342;2022-09-13T00:43:16;4.35;;;2.70;;
29330;SDS011;16331;52.528;13.342;2022-09-13T00:45:43;3.47;;;2.40;;
29330;SDS011;16331;52.528;13.342;2022-09-13T00:48:14;3.75;;;2.50;;
29330;SDS011;16331;52.528;13.342;2022-09-13T00:50:47;5.82;;;2.42;;
29330;SDS011;16331;52.528;13.342;2022-09-13T00:53:30;4.03;;;2.33;;
29330;SDS011;16331;52.528;13.342;2022-09-13T00:56:00;5.20;;;2.60;;
29330;SDS011;16331;52.528;13.342;2022-09-13T00:58:34;4.38;;;2.53;;
29330;SDS011;16331;52.528;13.342;2022-09-13T01:01:10;6.55;;;3.42;;
29330;SDS011;16331;52.528;13.342;2022-09-13T01:03:38;3.50;;;2.13;;
29330;SDS011;16331;52.528;13.342;2022-09-13T01:06:07;2.90;;;2.25;;
29330;SDS011;16331;52.528;13.342;2022-09-13T01:08:47;3.67;;;2.50;;
29330;SDS011;16331;52.528;13.342;2022-09-13T01:11:25;2.78;;;2.33;;
29330;SDS011;16331;52.528;13.342;2022-09-13T01:14:14;7.57;;;2.47;;
29330;SDS011;16331;52.528;13.342;2022-09-13T01:16:43;3.45;;;2.63;;
29330;SDS011;16331;52.528;13.342;2022-09-13T01:19:09;2.58;;;1.98;;
29330;SDS011;16331;52.528;13.342;2022-09-13T01:32:52;8.35;;;3.70;;
29330;SDS011;16331;52.528;13.342;2022-09-13T01:40:50;3.70;;;2.60;;
29330;SDS011;16331;52.528;13.342;2022-09-13T01:46:52;14.15;;;5.20;;
29330;SDS011;16331;52.528;13.342;2022-09-13T01:49:38;3.30;;;2.22;;
29330;SDS011;16331;52.528;13.342;2022-09-13T01:52:29;3.97;;;2.60;;
29330;SDS011;16331;52.528;13.342;2022-09-13T01:55:23;3.58;;;2.38;;
29330;SDS011;16331;52.528;13.342;2022-09-13T02:03:52;3.08;;;2.50;;
29330;SDS011;16331;52.528;13.342;2022-09-13T02:06:29;6.72;;;3.63;;
29330;SDS011;16331;52.528;13.342;2022-09-13T02:09:17;3.13;;;2.30;;
29330;SDS011;16331;52.528;13.342;2022-09-13T02:11:47;8.95;;;3.97;;
29330;SDS011;16331;52.528;13.342;2022-09-13T02:14:20;6.07;;;3.42;;
29330;SDS011;16331;52.528;13.342;2022-09-13T02:17:00;3.85;;;2.70;;
29330;SDS011;16331;52.528;13.342;2022-09-13T02:19:41;3.60;;;2.80;;
29330;SDS011;16331;52.528;13.342;2022-09-13T02:22:16;6.07;;;3.58;;
29330;SDS011;16331;52.528;13.342;2022-09-13T02:24:47;3.72;;;2.67;;
29330;SDS011;16331;52.528;13.342;2022-09-13T02:27:20;3.22;;;2.47;;
29330;SDS011;16331;52.528;13.342;2022-09-13T02:29:52;3.28;;;2.45;;
29330;SDS011;16331;52.528;13.342;2022-09-13T02:32:27;6.35;;;2.70;;
29330;SDS011;16331;52.528;13.342;2022-09-13T02:35:41;4.90;;;2.95;;
29330;SDS011;16331;52.528;13.342;2022-09-13T02:38:21;3.25;;;2.30;;
29330;SDS011;16331;52.528;13.342;2022-09-13T02:40:52;3.20;;;2.67;;
29330;SDS011;16331;52.528;13.342;2022-09-13T02:43:29;5.70;;;2.90;;
29330;SDS011;16331;52.528;13.342;2022-09-13T02:46:08;3.78;;;2.97;;
29330;SDS011;16331;52.528;13.342;2022-09-13T02:48:48;4.68;;;3.17;;
29330;SDS011;16331;52.528;13.342;2022-09-13T02:51:29;5.18;;;3.13;;
29330;SDS011;16331;52.528;13.342;2022-09-13T02:54:15;5.95;;;3.50;;
29330;SDS011;16331;52.528;13.342;2022-09-13T02:56:58;2.92;;;2.50;;
29330;SDS011;16331;52.528;13.342;2022-09-13T02:59:28;5.03;;;3.08;;
29330;SDS011;16331;52.528;13.342;2022-09-13T03:01:59;3.28;;;2.78;;
29330;SDS011;16331;52.528;13.342;2022-09-13T03:04:27;6.90;;;3.08;;
29330;SDS011;16331;52.528;13.342;2022-09-13T03:06:53;3.78;;;2.90;;
29330;SDS011;16331;52.528;13.342;2022-09-13T03:09:19;7.45;;;3.10;;
29330;SDS011;16331;52.528;13.342;2022-09-13T03:14:20;5.97;;;3.45;;
29330;SDS011;16331;52.528;13.342;2022-09-13T03:22:29;6.88;;;2.83;;
29330;SDS011;16331;52.528;13.342;2022-09-13T03:25:24;4.32;;;2.83;;
29330;SDS011;16331;52.528;13.342;2022-09-13T03:30:58;3.75;;;2.97;;
29330;SDS011;16331;52.528;13.342;2022-09-13T03:36:52;5.67;;;3.77;;
29330;SDS011;16331;52.528;13.342;2022-09-13T03:39:31;9.63;;;4.22;;
29330;SDS011;16331;52.528;13.342;2022-09-13T03:42:15;5.07;;;3.50;;
29330;SDS011;16331;52.528;13.342;2022-09-13T03:44:57;6.47;;;3.83;;
29330;SDS011;16331;52.528;13.342;2022-09-13T03:47:28;4.90;;;3.45;;
29330;SDS011;16331;52.528;13.342;2022-09-13T03:49:58;6.65;;;3.10;;
29330;SDS011;16331;52.528;13.342;2022-09-13T03:52:26;4.68;;;3.38;;
29330;SDS011;16331;52.528;13.342;2022-09-13T03:54:52;5.07;;;4.03;;
29330;SDS011;16331;52.528;13.342;2022-09-13T03:57:19;4.80;;;3.28;;
29330;SDS011;16331;52.528;13.342;2022-09-13T03:59:47;5.72;;;3.38;;
29330;SDS011;16331;52.528;13.342;2022-09-13T04:02:22;7.43;;;3.30;;
29330;SDS011;16331;52.528;13.342;2022-09-13T04:04:50;3.75;;;3.20;;
29330;SDS011;16331;52.528;13.342;2022-09-13T04:07:20;4.78;;;3.63;;
29330;SDS011;16331;52.528;13.342;2022-09-13T04:09:47;6.53;;;3.88;;
29330;SDS011;16331;52.528;13.342;2022-09-13T04:12:14;6.15;;;3.65;;
29330;SDS011;16331;52.528;13.342;2022-09-13T04:14:42;5.20;;;3.45;;
29330;SDS011;16331;52.528;13.342;2022-09-13T04:17:08;6.55;;;3.85;;
29330;SDS011;16331;52.528;13.342;2022-09-13T04:19:36;6.15;;;4.07;;
29330;SDS011;16331;52.528;13.342;2022-09-13T04:22:02;6.32;;;4.20;;
29330;SDS011;16331;52.528;13.342;2022-09-13T04:24:28;7.93;;;4.10;;
29330;SDS011;16331;52.528;13.342;2022-09-13T04:26:55;7.90;;;3.65;;
29330;SDS011;16331;52.528;13.342;2022-09-13T04:29:22;5.88;;;4.10;;
29330;SDS011;16331;52.528;13.342;2022-09-13T04:31:50;4.47;;;3.35;;
29330;SDS011;16331;52.528;13.342;2022-09-13T04:34:18;6.20;;;3.85;;
29330;SDS011;16331;52.528;13.342;2022-09-13T04:36:46;8.60;;;3.95;;
29330;SDS011;16331;52.528;13.342;2022-09-13T04:39:13;9.40;;;4.32;;
29330;SDS011;16331;52.528;13.342;2022-09-13T04:41:40;10.18;;;4.65;;
29330;SDS011;16331;52.528;13.342;2022-09-13T04:44:08;12.07;;;4.78;;
29330;SDS011;16331;52.528;13.342;2022-09-13T04:46:34;11.35;;;4.55;;
29330;SDS011;16331;52.528;13.342;2022-09-13T04:49:00;9.48;;;4.40;;
29330;SDS011;16331;52.528;13.342;2022-09-13T04:51:27;7.95;;;3.90;;
29330;SDS011;16331;52.528;13.342;2022-09-13T04:53:54;8.10;;;4.35;;
29330;SDS011;16331;52.528;13.342;2022-09-13T04:56:21;7.43;;;4.32;;
29330;SDS011;16331;52.528;13.342;2022-09-13T04:58:51;6.60;;;4.13;;
29330;SDS011;16331;52.528;13.342;2022-09-13T05:01:19;7.55;;;4.35;;
29330;SDS011;16331;52.528;13.342;2022-09-13T05:03:47;8.65;;;4.20;;
29330;SDS011;16331;52.528;13.342;2022-09-13T05:06:15;6.85;;;3.92;;
29330;SDS011;16331;52.528;13.342;2022-09-13T05:08:42;6.88;;;4.00;;
29330;SDS011;16331;52.528;13.342;2022-09-13T05:11:08;7.25;;;4.47;;
29330;SDS011;16331;52.528;13.342;2022-09-13T05:13:35;7.88;;;4.32;;
29330;SDS011;16331;52.528;13.342;2022-09-13T05:16:02;9.23;;;4.88;;
29330;SDS011;16331;52.528;13.342;2022-09-13T05:18:31;7.85;;;4.80;;
29330;SDS011;16331;52.528;13.342;2022-09-13T05:20:58;7.40;;;4.75;;
29330;SDS011;16331;52.528;13.342;2022-09-13T05:23:27;9.73;;;5.57;;
29330;SDS011;16331;52.528;13.342;2022-09-13T05:26:04;6.63;;;4.18;;
29330;SDS011;16331;52.528;13.342;2022-09-13T05:28:34;8.68;;;3.80;;
29330;SDS011;16331;52.528;13.342;2022-09-13T05:31:02;6.35;;;4.43;;
29330;SDS011;16331;52.528;13.342;2022-09-13T05:33:35;7.00;;;4.35;;
29330;SDS011;16331;52.528;13.342;2022-09-13T05:36:03;6.35;;;4.45;;
29330;SDS011;16331;52.528;13.342;2022-09-13T05:38:30;6.78;;;4.38;;
29330;SDS011;16331;52.528;13.342;2022-09-13T05:40:56;9.52;;;4.85;;
29330;SDS011;16331;52.528;13.342;2022-09-13T05:43:28;10.30;;;4.32;;
29330;SDS011;16331;52.528;13.342;2022-09-13T05:46:05;5.68;;;4.05;;
29330;SDS011;16331;52.528;13.342;2022-09-13T05:48:34;8.35;;;4.68;;
29330;SDS011;16331;52.528;13.342;2022-09-13T05:51:13;7.28;;;4.57;;
29330;SDS011;16331;52.528;13.342;2022-09-13T05:53:42;8.50;;;4.25;;
29330;SDS011;16331;52.528;13.342;2022-09-13T05:56:11;9.15;;;4.93;;
29330;SDS011;16331;52.528;13.342;2022-09-13T05:58:39;10.30;;;5.43;;
29330;SDS011;16331;52.528;13.342;2022-09-13T06:01:07;13.85;;;5.00;;
29330;SDS011;16331;52.528;13.342;2022-09-13T06:03:35;9.07;;;4.65;;
29330;SDS011;16331;52.528;13.342;2022-09-13T06:06:01;10.55;;;4.97;;
29330;SDS011;16331;52.528;13.342;2022-09-13T06:08:29;12.65;;;5.35;;
29330;SDS011;16331;52.528;13.342;2022-09-13T06:10:57;10.80;;;5.05;;
29330;SDS011;16331;52.528;13.342;2022-09-13T06:13:25;14.10;;;5.38;;
29330;SDS011;16331;52.528;13.342;2022-09-13T06:15:52;14.77;;;6.30;;
29330;SDS011;16331;52.528;13.342;2022-09-13T06:18:20;11.65;;;6.40;;
29330;SDS011;16331;52.528;13.342;2022-09-13T06:20:47;13.38;;;7.00;;
29330;SDS011;16331;52.528;13.342;2022-09-13T06:23:15;11.10;;;6.10;;
29330;SDS011;16331;52.528;13.342;2022-09-13T06:25:42;10.25;;;6.57;;
29330;SDS011;16331;52.528;13.342;2022-09-13T06:28:08;13.55;;;7.30;;
29330;SDS011;16331;52.528;13.342;2022-09-13T06:30:34;10.07;;;5.60;;
29330;SDS011;16331;52.528;13.342;2022-09-13T06:33:00;12.82;;;6.78;;
29330;SDS011;16331;52.528;13.342;2022-09-13T06:35:26;19.60;;;7.63;;
29330;SDS011;16331;52.528;13.342;2022-09-13T06:37:55;11.48;;;6.55;;
29330;SDS011;16331;52.528;13.342;2022-09-13T06:40:22;11.02;;;6.75;;
29330;SDS011;16331;52.528;13.342;2022-09-13T06:42:49;12.43;;;7.82;;
29330;SDS011;16331;52.528;13.342;2022-09-13T06:45:16;16.30;;;6.97;;
29330;SDS011;16331;52.528;13.342;2022-09-13T06:47:43;18.95;;;8.27;;
29330;SDS011;16331;52.528;13.342;2022-09-13T06:50:09;14.13;;;6.82;;
29330;SDS011;16331;52.528;13.342;2022-09-13T06:52:35;14.27;;;7.55;;
29330;SDS011;16331;52.528;13.342;2022-09-13T06:55:01;12.82;;;8.13;;
29330;SDS011;16331;52.528;13.342;2022-09-13T06:57:30;13.57;;;7.35;;
29330;SDS011;16331;52.528;13.342;2022-09-13T06:59:56;12.85;;;6.95;;
29330;SDS011;16331;52.528;13.342;2022-09-13T07:02:22;14.48;;;7.70;;
29330;SDS011;16331;52.528;13.342;2022-09-13T07:04:49;13.93;;;7.35;;
29330;SDS011;16331;52.528;13.342;2022-09-13T07:07:15;13.88;;;7.72;;
29330;SDS011;16331;52.528;13.342;2022-09-13T07:09:42;13.18;;;6.75;;
29330;SDS011;16331;52.528;13.342;2022-09-13T07:12:08;13.80;;;7.35;;
29330;SDS011;16331;52.528;13.342;2022-09-13T07:14:34;12.38;;;6.63;;
29330;SDS011;16331;52.528;13.342;2022-09-13T07:17:00;16.70;;;7.75;;
29330;SDS011;16331;52.528;13.342;2022-09-13T07:19:27;11.48;;;7.22;;
29330;SDS011;16331;52.528;13.342;2022-09-13T07:21:54;14.60;;;7.55;;
29330;SDS011;16331;52.528;13.342;2022-09-13T07:24:20;11.88;;;7.38;;
29330;SDS011;16331;52.528;13.342;2022-09-13T07:26:47;11.55;;;6.90;;
29330;SDS011;16331;52.528;13.342;2022-09-13T07:29:14;12.15;;;7.75;;
29330;SDS011;16331;52.528;13.342;2022-09-13T07:31:44;10.73;;;6.38;;
29330;SDS011;16331;52.528;13.342;2022-09-13T07:34:12;14.35;;;8.13;;
29330;SDS011;16331;52.528;13.342;2022-09-13T07:36:46;11.18;;;6.30;;
29330;SDS011;16331;52.528;13.342;2022-09-13T07:39:13;10.52;;;6.25;;
29330;SDS011;16331;52.528;13.342;2022-09-13T07:41:40;19.08;;;7.45;;
29330;SDS011;16331;52.528;13.342;2022-09-13T07:44:08;11.20;;;6.53;;
29330;SDS011;16331;52.528;13.342;2022-09-13T07:46:35;11.85;;;6.28;;
29330;SDS011;16331;52.528;13.342;2022-09-13T07:49:04;10.75;;;6.25;;
29330;SDS011;16331;52.528;13.342;2022-09-13T07:51:34;9.80;;;6.25;;
29330;SDS011;16331;52.528;13.342;2022-09-13T07:54:02;14.73;;;6.78;;
29330;SDS011;16331;52.528;13.342;2022-09-13T07:56:31;23.85;;;9.23;;
29330;SDS011;16331;52.528;13.342;2022-09-13T07:58:59;13.52;;;7.63;;
29330;SDS011;16331;52.528;13.342;2022-09-13T08:01:28;16.83;;;6.80;;
29330;SDS011;16331;52.528;13.342;2022-09-13T08:04:00;11.02;;;5.50;;
29330;SDS011;16331;52.528;13.342;2022-09-13T08:06:29;14.55;;;7.28;;
29330;SDS011;16331;52.528;13.342;2022-09-13T08:08:56;12.30;;;5.85;;
29330;SDS011;16331;52.528;13.342;2022-09-13T08:11:32;9.98;;;5.93;;
29330;SDS011;16331;52.528;13.342;2022-09-13T08:14:04;12.35;;;5.75;;
29330;SDS011;16331;52.528;13.342;2022-09-13T08:16:31;11.48;;;6.20;;
29330;SDS011;16331;52.528;13.342;2022-09-13T08:18:58;9.50;;;5.10;;
29330;SDS011;16331;52.528;13.342;2022-09-13T08:21:30;11.13;;;6.07;;
29330;SDS011;16331;52.528;13.342;2022-09-13T08:24:01;10.32;;;5.68;;
29330;SDS011;16331;52.528;13.342;2022-09-13T08:26:28;12.32;;;5.45;;
29330;SDS011;16331;52.528;13.342;2022-09-13T08:28:59;16.58;;;6.05;;
29330;SDS011;16331;52.528;13.342;2022-09-13T08:31:26;10.00;;;5.63;;
29330;SDS011;16331;52.528;13.342;2022-09-13T08:33:53;13.27;;;5.45;;
29330;SDS011;16331;52.528;13.342;2022-09-13T08:36:20;9.15;;;5.50;;
29330;SDS011;16331;52.528;13.342;2022-09-13T08:38:52;9.70;;;5.18;;
29330;SDS011;16331;52.528;13.342;2022-09-13T08:44:29;9.05;;;5.57;;
29330;SDS011;16331;52.528;13.342;2022-09-13T08:47:03;8.07;;;4.85;;
29330;SDS011;16331;52.528;13.342;2022-09-13T08:49:59;7.75;;;5.20;;
29330;SDS011;16331;52.528;13.342;2022-09-13T08:55:27;8.65;;;5.07;;
29330;SDS011;16331;52.528;13.342;2022-09-13T09:01:21;9.00;;;4.85;;
29330;SDS011;16331;52.528;13.342;2022-09-13T09:04:01;9.82;;;5.20;;
29330;SDS011;16331;52.528;13.342;2022-09-13T09:06:39;8.35;;;4.85;;
29330;SDS011;16331;52.528;13.342;2022-09-13T09:09:07;9.80;;;4.97;;
29330;SDS011;16331;52.528;13.342;2022-09-13T09:12:05;11.80;;;5.35;;
29330;SDS011;16331;52.528;13.342;2022-09-13T09:14:51;10.05;;;5.22;;
29330;SDS011;16331;52.528;13.342;2022-09-13T09:17:29;9.10;;;5.38;;
29330;SDS011;16331;52.528;13.342;2022-09-13T09:20:17;7.77;;;4.60;;
29330;SDS011;16331;52.528;13.342;2022-09-13T09:22:52;8.23;;;5.30;;
29330;SDS011;16331;52.528;13.342;2022-09-13T09:25:20;12.00;;;5.30;;
29330;SDS011;16331;52.528;13.342;2022-09-13T09:27:49;9.43;;;4.78;;
29330;SDS011;16331;52.528;13.342;2022-09-13T09:30:16;7.30;;;4.20;;
29330;SDS011;16331;52.528;13.342;2022-09-13T09:33:04;9.40;;;4.90;;
29330;SDS011;16331;52.528;13.342;2022-09-13T09:35:46;7.95;;;4.50;;
29330;SDS011;16331;52.528;13.342;2022-09-13T09:38:35;7.63;;;4.75;;
29330;SDS011;16331;52.528;13.342;2022-09-13T09:41:08;7.63;;;4.30;;
29330;SDS011;16331;52.528;13.342;2022-09-13T09:43:38;6.88;;;4.43;;
29330;SDS011;16331;52.528;13.342;2022-09-13T09:46:12;8.10;;;5.00;;
29330;SDS011;16331;52.528;13.342;2022-09-13T09:48:45;8.52;;;3.75;;
29330;SDS011;16331;52.528;13.342;2022-09-13T09:51:16;7.75;;;3.85;;
29330;SDS011;16331;52.528;13.342;2022-09-13T09:53:44;7.78;;;4.47;;
29330;SDS011;16331;52.528;13.342;2022-09-13T09:56:19;10.13;;;4.75;;
29330;SDS011;16331;52.528;13.342;2022-09-13T09:58:51;6.95;;;3.90;;
29330;SDS011;16331;52.528;13.342;2022-09-13T10:01:24;8.38;;;5.10;;
29330;SDS011;16331;52.528;13.342;2022-09-13T10:06:32;7.70;;;4.20;;
29330;SDS011;16331;52.528;13.342;2022-09-13T10:11:45;6.45;;;3.53;;
29330;SDS011;16331;52.528;13.342;2022-09-13T10:19:55;6.32;;;3.80;;
29330;SDS011;16331;52.528;13.342;2022-09-13T10:22:25;6.88;;;4.15;;
29330;SDS011;16331;52.528;13.342;2022-09-13T10:24:52;5.97;;;4.03;;
29330;SDS011;16331;52.528;13.342;2022-09-13T10:27:31;8.98;;;4.75;;
29330;SDS011;16331;52.528;13.342;2022-09-13T10:30:00;8.07;;;4.40;;
29330;SDS011;16331;52.528;13.342;2022-09-13T10:32:29;9.70;;;4.57;;
29330;SDS011;16331;52.528;13.342;2022-09-13T10:34:58;8.88;;;4.93;;
29330;SDS011;16331;52.528;13.342;2022-09-13T10:37:34;8.15;;;4.78;;
29330;SDS011;16331;52.528;13.342;2022-09-13T10:40:03;7.78;;;5.00;;
29330;SDS011;16331;52.528;13.342;2022-09-13T10:42:31;9.63;;;4.88;;
29330;SDS011;16331;52.528;13.342;2022-09-13T10:45:02;7.70;;;5.05;;
29330;SDS011;16331;52.528;13.342;2022-09-13T10:47:38;9.13;;;5.20;;
29330;SDS011;16331;52.528;13.342;2022-09-13T10:55:19;12.50;;;6.47;;
29330;SDS011;16331;52.528;13.342;2022-09-13T10:58:33;12.52;;;5.80;;
29330;SDS011;16331;52.528;13.342;2022-09-13T11:03:39;11.40;;;6.20;;
29330;SDS011;16331;52.528;13.342;2022-09-13T11:09:07;11.57;;;5.50;;
29330;SDS011;16331;52.528;13.342;2022-09-13T11:14:40;13.43;;;6.15;;
29330;SDS011;16331;52.528;13.342;2022-09-13T11:17:33;10.00;;;6.03;;
29330;SDS011;16331;52.528;13.342;2022-09-13T11:39:38;9.95;;;4.68;;
29330;SDS011;16331;52.528;13.342;2022-09-13T11:42:53;10.95;;;5.40;;
29330;SDS011;16331;52.528;13.342;2022-09-13T11:45:34;9.43;;;5.03;;
29330;SDS011;16331;52.528;13.342;2022-09-13T11:48:28;10.63;;;5.85;;
29330;SDS011;16331;52.528;13.342;2022-09-13T11:51:53;9.25;;;5.57;;
29330;SDS011;16331;52.528;13.342;2022-09-13T11:54:06;11.68;;;5.90;;
29330;SDS011;16331;52.528;13.342;2022-09-13T11:56:48;9.48;;;5.15;;
29330;SDS011;16331;52.528;13.342;2022-09-13T11:59:31;13.45;;;5.75;;
29330;SDS011;16331;52.528;13.342;2022-09-13T12:02:17;13.35;;;5.95;;
29330;SDS011;16331;52.528;13.342;2022-09-13T12:05:06;15.45;;;7.10;;
29330;SDS011;16331;52.528;13.342;2022-09-13T12:07:41;8.85;;;4.75;;
29330;SDS011;16331;52.528;13.342;2022-09-13T12:12:45;12.60;;;6.63;;
29330;SDS011;16331;52.528;13.342;2022-09-13T12:17:51;16.27;;;6.53;;
29330;SDS011;16331;52.528;13.342;2022-09-13T12:20:31;14.15;;;7.15;;
29330;SDS011;16331;52.528;13.342;2022-09-13T12:22:59;11.70;;;6.28;;
29330;SDS011;16331;52.528;13.342;2022-09-13T12:25:42;18.00;;;6.70;;
29330;SDS011;16331;52.528;13.342;2022-09-13T12:28:33;15.57;;;7.03;;
29330;SDS011;16331;52.528;13.342;2022-09-13T12:31:12;15.48;;;6.95;;
29330;SDS011;16331;52.528;13.342;2022-09-13T12:33:46;18.73;;;8.13;;
29330;SDS011;16331;52.528;13.342;2022-09-13T12:36:22;17.00;;;9.32;;
29330;SDS011;16331;52.528;13.342;2022-09-13T12:44:45;13.23;;;7.25;;
29330;SDS011;16331;52.528;13.342;2022-09-13T12:50:04;11.68;;;5.63;;
29330;SDS011;16331;52.528;13.342;2022-09-13T12:55:30;13.90;;;4.53;;
29330;SDS011;16331;52.528;13.342;2022-09-13T13:01:14;8.82;;;5.35;;
29330;SDS011;16331;52.528;13.342;2022-09-13T13:06:27;11.15;;;5.63;;
29330;SDS011;16331;52.528;13.342;2022-09-13T13:09:39;14.82;;;7.78;;
29330;SDS011;16331;52.528;13.342;2022-09-13T13:12:09;17.00;;;7.88;;
29330;SDS011;16331;52.528;13.342;2022-09-13T13:14:53;14.25;;;7.97;;
29330;SDS011;16331;52.528;13.342;2022-09-13T13:31:35;16.95;;;8.48;;
29330;SDS011;16331;52.528;13.342;2022-09-13T13:39:06;23.40;;;10.55;;
29330;SDS011;16331;52.528;13.342;2022-09-13T13:41:58;7.97;;;4.68;;
29330;SDS011;16331;52.528;13.342;2022-09-13T13:46:52;4.38;;;2.95;;
29330;SDS011;16331;52.528;13.342;2022-09-13T13:57:25;5.82;;;2.78;;
29330;SDS011;16331;52.528;13.342;2022-09-13T14:08:06;6.10;;;3.13;;
29330;SDS011;16331;52.528;13.342;2022-09-13T14:18:57;5.53;;;2.80;;
29330;SDS011;16331;52.528;13.342;2022-09-13T14:21:36;4.80;;;2.70;;
29330;SDS011;16331;52.528;13.342;2022-09-13T14:24:22;5.20;;;2.30;;
29330;SDS011;16331;52.528;13.342;2022-09-13T14:26:50;3.80;;;2.25;;
29330;SDS011;16331;52.528;13.342;2022-09-13T14:29:22;4.88;;;2.78;;
29330;SDS011;16331;52.528;13.342;2022-09-13T14:31:53;6.10;;;3.17;;
29330;SDS011;16331;52.528;13.342;2022-09-13T14:34:34;4.88;;;2.97;;
29330;SDS011;16331;52.528;13.342;2022-09-13T14:37:03;3.28;;;2.60;;
29330;SDS011;16331;52.528;13.342;2022-09-13T14:39:39;4.40;;;2.70;;
29330;SDS011;16331;52.528;13.342;2022-09-13T14:42:22;13.32;;;3.15;;
29330;SDS011;16331;52.528;13.342;2022-09-13T14:44:48;5.13;;;2.60;;
29330;SDS011;16331;52.528;13.342;2022-09-13T14:47:26;3.88;;;2.53;;
29330;SDS011;16331;52.528;13.342;2022-09-13T14:50:02;5.25;;;3.03;;
29330;SDS011;16331;52.528;13.342;2022-09-13T14:52:37;5.28;;;2.83;;
29330;SDS011;16331;52.528;13.342;2022-09-13T14:55:15;5.68;;;2.72;;
29330;SDS011;16331;52.528;13.342;2022-09-13T14:57:46;4.53;;;2.83;;
29330;SDS011;16331;52.528;13.342;2022-09-13T15:00:17;5.95;;;3.60;;
29330;SDS011;16331;52.528;13.342;2022-09-13T15:02:48;5.35;;;3.17;;
29330;SDS011;16331;52.528;13.342;2022-09-13T15:05:17;36.85;;;6.07;;
29330;SDS011;16331;52.528;13.342;2022-09-13T15:07:49;8.50;;;4.60;;
29330;SDS011;16331;52.528;13.342;2022-09-13T15:10:30;8.48;;;3.80;;
29330;SDS011;16331;52.528;13.342;2022-09-13T15:17:57;6.13;;;4.13;;
29330;SDS011;16331;52.528;13.342;2022-09-13T15:20:48;7.18;;;3.97;;
29330;SDS011;16331;52.528;13.342;2022-09-13T15:23:27;6.45;;;4.40;;
29330;SDS011;16331;52.528;13.342;2022-09-13T15:26:04;11.68;;;4.88;;
29330;SDS011;16331;52.528;13.342;2022-09-13T15:31:25;5.57;;;3.92;;
29330;SDS011;16331;52.528;13.342;2022-09-13T15:36:48;6.10;;;3.90;;
29330;SDS011;16331;52.528;13.342;2022-09-13T15:39:23;13.27;;;4.95;;
29330;SDS011;16331;52.528;13.342;2022-09-13T15:41:51;6.63;;;4.05;;
29330;SDS011;16331;52.528;13.342;2022-09-13T15:44:23;6.60;;;4.35;;
29330;SDS011;16331;52.528;13.342;2022-09-13T15:46:54;7.15;;;4.35;;
29330;SDS011;16331;52.528;13.342;2022-09-13T15:49:24;9.32;;;5.10;;
29330;SDS011;16331;52.528;13.342;2022-09-13T15:51:52;9.82;;;5.50;;
29330;SDS011;16331;52.528;13.342;2022-09-13T15:54:25;8.73;;;4.18;;
29330;SDS011;16331;52.528;13.342;2022-09-13T15:56:55;9.32;;;4.60;;
29330;SDS011;16331;52.528;13.342;2022-09-13T15:59:23;8.00;;;4.82;;
29330;SDS011;16331;52.528;13.342;2022-09-13T16:01:50;5.57;;;3.88;;
29330;SDS011;16331;52.528;13.342;2022-09-13T16:04:17;6.72;;;3.72;;
29330;SDS011;16331;52.528;13.342;2022-09-13T16:06:44;10.65;;;3.83;;
29330;SDS011;16331;52.528;13.342;2022-09-13T16:09:19;8.38;;;4.50;;
29330;SDS011;16331;52.528;13.342;2022-09-13T16:11:48;7.05;;;3.80;;
29330;SDS011;16331;52.528;13.342;2022-09-13T16:14:15;5.45;;;3.20;;
29330;SDS011;16331;52.528;13.342;2022-09-13T16:16:43;4.80;;;3.10;;
29330;SDS011;16331;52.528;13.342;2022-09-13T16:19:17;6.53;;;3.40;;
29330;SDS011;16331;52.528;13.342;2022-09-13T16:21:45;8.23;;;3.22;;
29330;SDS011;16331;52.528;13.342;2022-09-13T16:24:12;5.25;;;2.92;;
29330;SDS011;16331;52.528;13.342;2022-09-13T16:26:39;5.50;;;3.10;;
29330;SDS011;16331;52.528;13.342;2022-09-13T16:29:06;5.38;;;3.05;;
29330;SDS011;16331;52.528;13.342;2022-09-13T16:31:37;5.75;;;3.25;;
29330;SDS011;16331;52.528;13.342;2022-09-13T16:34:03;5.22;;;3.60;;
29330;SDS011;16331;52.528;13.342;2022-09-13T16:36:30;5.63;;;2.80;;
29330;SDS011;16331;52.528;13.342;2022-09-13T16:38:58;7.38;;;3.45;;
29330;SDS011;16331;52.528;13.342;2022-09-13T16:41:24;9.07;;;3.28;;
29330;SDS011;16331;52.528;13.342;2022-09-13T16:43:50;6.63;;;3.50;;
29330;SDS011;16331;52.528;13.342;2022-09-13T16:46:18;9.52;;;4.07;;
29330;SDS011;16331;52.528;13.342;2022-09-13T16:48:45;6.70;;;3.70;;
29330;SDS011;16331;52.528;13.342;2022-09-13T16:51:20;7.13;;;3.80;;
29330;SDS011;16331;52.528;13.342;2022-09-13T16:53:48;6.07;;;3.60;;
29330;SDS011;16331;52.528;13.342;2022-09-13T16:56:16;5.93;;;3.30;;
29330;SDS011;16331;52.528;13.342;2022-09-13T16:58:45;9.48;;;3.78;;
29330;SDS011;16331;52.528;13.342;2022-09-13T17:01:13;6.03;;;3.33;;
29330;SDS011;16331;52.528;13.342;2022-09-13T17:03:41;4.65;;;3.28;;
29330;SDS011;16331;52.528;13.342;2022-09-13T17:06:09;5.15;;;3.33;;
29330;SDS011;16331;52.528;13.342;2022-09-13T17:08:38;5.15;;;3.33;;
29330;SDS011;16331;52.528;13.342;2022-09-13T17:11:06;6.07;;;3.20;;
29330;SDS011;16331;52.528;13.342;2022-09-13T17:13:35;5.07;;;3.38;;
29330;SDS011;16331;52.528;13.342;2022-09-13T17:16:04;5.28;;;3.17;;
29330;SDS011;16331;52.528;13.342;2022-09-13T17:18:32;5.57;;;3.30;;
29330;SDS011;16331;52.528;13.342;2022-09-13T17:20:58;6.30;;;3.22;;
29330;SDS011;16331;52.528;13.342;2022-09-13T17:23:24;4.88;;;3.10;;
29330;SDS011;16331;52.528;13.342;2022-09-13T17:25:52;6.93;;;4.00;;
29330;SDS011;16331;52.528;13.342;2022-09-13T17:28:19;7.38;;;3.05;;
29330;SDS011;16331;52.528;13.342;2022-09-13T17:30:46;4.90;;;3.13;;
29330;SDS011;16331;52.528;13.342;2022-09-13T17:33:12;6.95;;;3.17;;
29330;SDS011;16331;52.528;13.342;2022-09-13T17:35:41;6.97;;;2.80;;
29330;SDS011;16331;52.528;13.342;2022-09-13T17:38:07;5.70;;;3.17;;
29330;SDS011;16331;52.528;13.342;2022-09-13T17:40:33;4.75;;;2.83;;
29330;SDS011;16331;52.528;13.342;2022-09-13T17:42:59;5.55;;;2.70;;
29330;SDS011;16331;52.528;13.342;2022-09-13T17:45:26;7.13;;;3.00;;
29330;SDS011;16331;52.528;13.342;2022-09-13T17:47:52;8.63;;;4.55;;
29330;SDS011;16331;52.528;13.342;2022-09-13T17:50:19;6.70;;;3.50;;
29330;SDS011;16331;52.528;13.342;2022-09-13T17:52:45;5.15;;;3.33;;